Pagina principale
METAR-TAF:

METAR-TAF

Aeroporti :

Aeroporto di Kangerlussuaq

Kangerlussuaq, Groenlandia

latitudine: 67-01N, longitudine: 050-42W, altezza: 50 m

Osservazione

Il bollettino è stato emesso 22 minuti fa, alle 17:50 UTC
Vento 2 kt da est
Temperature -20°C
Umidità 70%
Pressione 1008 hPa
Visibilità 10 km o più

METAR: BGSF 241750Z AUTO 08002KT 9999NDV OVC029/// M20/M24 Q1008

Ora: 15:12 (18:12 UTC)

Previsione

Il bollettino è stato emesso 1 ora e 23 minuti fa, alle 16:49 UTC
Previsione valida dal 24 alle 18 UTC al 24 alle 24 UTC
Vento 8 kt da est/nord-est
Visibilità 10 km o più
Nuvoloso ad un'altezza di 3000 ft
Temporaneamente
dal 24 alle 18 UTC al 24 alle 24 UTC
Nubi sparse ad un'altezza di 3000 ft

TAF: BGSF 241649Z 2418/2424 06008KT 9999 BKN030 TEMPO 2418/2424 SCT030

Osservazioni e previsioni meteorologiche di più di 4000 aeroporti (messaggi METAR e TAF).

Le stazioni disponibili sono rappresentate dai dischi gialli e rossi sulla carta.

Puntare il mouse per vedere il nome della stazione.

Clicca sopra per visualizzare le osservazioni e previsioni meteorologiche.

Per cambiare la mappa : fare clic sui pulsanti verdi con una croce nera per ingrandire, il pulsante verde con un trattino per diminuire, o sulla freccia verde per le mappe adiacenti.


METAR-TAF: